createdAt,value
2022-09-07T00:00:56.494Z,5.68
2022-09-07T00:06:00.113Z,5.93
2022-09-07T00:11:05.770Z,4.70
2022-09-07T00:16:12.715Z,5.05
2022-09-07T00:21:17.978Z,5.78
2022-09-07T00:26:23.446Z,5.20
2022-09-07T00:31:29.862Z,4.97
2022-09-07T00:36:33.518Z,5.35
2022-09-07T00:41:37.131Z,6.13
2022-09-07T00:46:42.378Z,5.07
2022-09-07T00:51:51.558Z,7.35
2022-09-07T00:56:55.201Z,7.28
2022-09-07T01:02:00.941Z,6.10
2022-09-07T01:07:05.229Z,5.63
2022-09-07T01:12:09.593Z,6.45
2022-09-07T01:17:22.617Z,5.28
2022-09-07T01:22:52.731Z,5.85
2022-09-07T01:28:10.726Z,6.22
2022-09-07T01:33:33.393Z,6.18
2022-09-07T01:38:41.853Z,10.50
2022-09-07T01:43:54.006Z,10.38
2022-09-07T01:49:03.425Z,5.15
2022-09-07T01:54:11.556Z,6.00
2022-09-07T01:59:23.922Z,7.63
2022-09-07T02:04:36.110Z,7.15
2022-09-07T02:09:47.994Z,6.35
2022-09-07T02:14:56.691Z,12.35
2022-09-07T02:20:09.954Z,6.00
2022-09-07T02:25:21.666Z,8.55
2022-09-07T02:30:26.947Z,5.55
2022-09-07T02:35:30.688Z,4.93
2022-09-07T02:45:51.289Z,4.88
2022-09-07T02:51:09.638Z,5.63
2022-09-07T02:56:27.588Z,5.63
2022-09-07T03:01:40.418Z,4.32
2022-09-07T03:06:48.775Z,6.50
2022-09-07T03:11:52.632Z,4.72
2022-09-07T03:22:01.218Z,7.40
2022-09-07T03:27:04.905Z,6.82
2022-09-07T03:32:11.447Z,6.32
2022-09-07T03:37:15.220Z,7.22
2022-09-07T03:42:18.817Z,6.00
2022-09-07T03:47:24.071Z,4.80
2022-09-07T03:52:27.683Z,5.93
2022-09-07T03:57:31.290Z,5.95
2022-09-07T04:02:36.564Z,6.55
2022-09-07T04:07:40.204Z,5.90
2022-09-07T04:12:43.761Z,6.47
2022-09-07T04:17:48.975Z,6.03
2022-09-07T04:22:54.293Z,5.10
2022-09-07T04:27:58.065Z,5.57
2022-09-07T04:33:03.798Z,7.00
2022-09-07T04:38:08.365Z,4.97
2022-09-07T04:43:11.951Z,7.45
2022-09-07T04:48:17.230Z,6.80
2022-09-07T04:53:20.837Z,6.57
2022-09-07T04:58:24.571Z,8.47
2022-09-07T05:03:30.199Z,5.50
2022-09-07T05:08:38.391Z,5.55
2022-09-07T05:13:42.226Z,7.00
2022-09-07T05:18:50.890Z,4.43
2022-09-07T05:23:56.069Z,4.95
2022-09-07T05:39:32.524Z,7.53
2022-09-07T05:49:48.494Z,7.18
2022-09-07T05:54:54.332Z,5.57
2022-09-07T06:00:00.207Z,6.00
2022-09-07T06:05:05.807Z,6.75
2022-09-07T06:15:34.131Z,6.35
2022-09-07T06:20:39.404Z,6.17
2022-09-07T06:25:49.878Z,6.13
2022-09-07T06:30:53.443Z,5.55
2022-09-07T06:36:00.343Z,6.57
2022-09-07T06:51:53.666Z,5.63
2022-09-07T06:56:57.234Z,7.82
2022-09-07T07:02:00.850Z,7.13
2022-09-07T07:07:06.135Z,6.20
2022-09-07T07:12:09.938Z,9.18
2022-09-07T07:17:13.689Z,7.00
2022-09-07T07:22:42.924Z,6.25
2022-09-07T07:32:46.175Z,8.40
2022-09-07T07:43:17.020Z,6.93
2022-09-07T07:48:20.558Z,8.18
2022-09-07T07:53:42.287Z,7.82
2022-09-07T07:58:47.767Z,5.72
2022-09-07T08:03:51.343Z,6.72
2022-09-07T08:08:56.847Z,5.95
2022-09-07T08:14:00.404Z,5.68
2022-09-07T08:19:03.940Z,6.28
2022-09-07T08:24:10.494Z,7.63
2022-09-07T08:29:14.014Z,6.93
2022-09-07T08:34:17.976Z,8.00
2022-09-07T08:39:24.828Z,8.18
2022-09-07T08:44:32.995Z,8.27
2022-09-07T08:49:46.632Z,7.13
2022-09-07T08:55:02.126Z,6.20
2022-09-07T09:00:07.977Z,7.38
2022-09-07T09:05:25.436Z,7.00
2022-09-07T09:10:40.742Z,6.55
2022-09-07T09:20:56.681Z,7.97
2022-09-07T09:26:08.380Z,9.35
2022-09-07T09:31:19.850Z,5.30
2022-09-07T09:36:33.174Z,7.00
2022-09-07T09:41:39.905Z,5.47
2022-09-07T09:47:29.535Z,6.13
2022-09-07T09:52:42.990Z,8.43
2022-09-07T10:08:55.827Z,7.55
2022-09-07T10:14:01.113Z,5.82
2022-09-07T10:19:04.692Z,7.50
2022-09-07T10:24:16.267Z,9.93
2022-09-07T10:29:28.869Z,8.80
2022-09-07T10:34:40.170Z,8.05
2022-09-07T10:39:46.528Z,10.38
2022-09-07T10:45:01.717Z,8.15
2022-09-07T10:50:24.480Z,9.32
2022-09-07T10:55:33.603Z,10.10
2022-09-07T11:00:58.089Z,11.98
2022-09-07T11:06:11.510Z,9.80
2022-09-07T11:12:00.627Z,10.23
2022-09-07T11:16:53.022Z,11.07
2022-09-07T11:22:01.624Z,9.60
2022-09-07T11:27:14.435Z,11.60
2022-09-07T11:32:23.600Z,11.35
2022-09-07T11:37:31.679Z,11.50
2022-09-07T11:42:43.596Z,13.38
2022-09-07T11:47:55.658Z,11.13
2022-09-07T11:53:04.564Z,13.27
2022-09-07T11:58:30.880Z,13.65
2022-09-07T12:04:14.631Z,12.48
2022-09-07T12:09:34.819Z,10.32
2022-09-07T12:14:46.330Z,12.32
2022-09-07T12:20:14.494Z,13.38
2022-09-07T12:25:19.645Z,11.88
2022-09-07T12:30:55.249Z,15.07
2022-09-07T12:36:01.245Z,15.75
2022-09-07T12:41:06.047Z,13.63
2022-09-07T12:46:20.543Z,12.43
2022-09-07T13:02:51.541Z,12.95
2022-09-07T13:08:30.085Z,14.68
2022-09-07T13:18:57.836Z,14.13
2022-09-07T13:24:47.701Z,15.38
2022-09-07T13:29:56.571Z,15.93
2022-09-07T13:35:14.117Z,14.68
2022-09-07T13:40:21.749Z,16.17
2022-09-07T13:45:32.414Z,15.75
2022-09-07T13:50:45.346Z,14.23
2022-09-07T13:55:57.556Z,15.00
2022-09-07T14:01:06.642Z,13.38
2022-09-07T14:06:33.945Z,16.25
2022-09-07T14:11:43.175Z,17.70
2022-09-07T14:16:50.500Z,12.73
2022-09-07T14:21:59.246Z,15.48
2022-09-07T14:27:03.803Z,13.80
2022-09-07T14:32:15.756Z,14.17
2022-09-07T14:37:21.430Z,14.82
2022-09-07T14:42:25.685Z,13.40
2022-09-07T14:47:33.341Z,12.07
2022-09-07T14:52:43.739Z,14.98
2022-09-07T15:03:33.107Z,12.73
2022-09-07T15:08:39.529Z,16.77
2022-09-07T15:13:45.537Z,16.42
2022-09-07T15:18:55.917Z,13.77
2022-09-07T15:24:00.966Z,16.35
2022-09-07T15:29:12.073Z,13.48
2022-09-07T15:34:18.838Z,15.20
2022-09-07T15:39:25.278Z,15.95
2022-09-07T15:44:29.230Z,13.98
2022-09-07T15:49:34.522Z,19.90
2022-09-07T15:54:39.832Z,17.15
2022-09-07T15:59:43.586Z,15.95
2022-09-07T16:04:48.943Z,16.35
2022-09-07T16:09:52.737Z,15.82
2022-09-07T16:14:56.691Z,16.33
2022-09-07T16:20:02.487Z,15.35
2022-09-07T16:25:06.708Z,17.08
2022-09-07T16:35:15.250Z,16.85
2022-09-07T16:40:18.812Z,15.77
2022-09-07T16:56:07.766Z,14.40
2022-09-07T17:01:14.103Z,17.48
2022-09-07T17:06:20.953Z,16.08
2022-09-07T17:11:26.711Z,13.30
2022-09-07T17:16:32.616Z,14.80
2022-09-07T17:21:39.728Z,16.83
2022-09-07T17:26:43.676Z,16.67
2022-09-07T17:37:12.399Z,12.98
2022-09-07T17:42:16.923Z,15.02
2022-09-07T17:47:22.340Z,13.77
2022-09-07T17:52:27.847Z,12.98
2022-09-07T17:57:32.216Z,16.10
2022-09-07T18:02:35.739Z,16.30
2022-09-07T18:12:44.421Z,17.98
2022-09-07T18:17:50.920Z,15.10
2022-09-07T18:22:57.758Z,15.77
2022-09-07T18:33:25.442Z,12.98
2022-09-07T18:38:31.041Z,14.38
2022-09-07T18:43:36.151Z,14.80
2022-09-07T18:48:40.391Z,18.27
2022-09-07T18:53:45.787Z,15.80
2022-09-07T18:58:49.619Z,14.15
2022-09-07T19:03:56.977Z,15.40
2022-09-07T19:09:02.183Z,14.02
2022-09-07T19:14:05.715Z,15.75
2022-09-07T19:19:10.923Z,14.43
2022-09-07T19:24:17.478Z,15.18
2022-09-07T19:29:21.042Z,14.70
2022-09-07T19:34:24.561Z,15.07
2022-09-07T19:39:30.150Z,14.38
2022-09-07T19:44:33.777Z,12.98
2022-09-07T19:49:37.327Z,13.35
2022-09-07T19:54:42.498Z,11.00
2022-09-07T19:59:46.001Z,14.32
2022-09-07T20:04:49.554Z,14.30
2022-09-07T20:09:55.649Z,11.65
2022-09-07T20:14:59.200Z,14.60
2022-09-07T20:20:03.002Z,12.88
2022-09-07T20:25:12.996Z,12.90
2022-09-07T20:30:16.943Z,11.77
2022-09-07T20:35:20.490Z,13.15
2022-09-07T20:40:25.763Z,12.05
2022-09-07T20:45:31.836Z,12.13
2022-09-07T20:50:35.636Z,13.45
2022-09-07T20:55:40.829Z,13.68
2022-09-07T21:00:50.658Z,13.32
2022-09-07T21:05:54.299Z,14.40
2022-09-07T21:10:59.482Z,15.32
2022-09-07T21:16:05.747Z,15.20
2022-09-07T21:21:24.454Z,13.48
2022-09-07T21:26:30.321Z,12.75
2022-09-07T21:31:34.476Z,15.13
2022-09-07T21:36:38.252Z,14.55
2022-09-07T21:41:43.743Z,16.65
2022-09-07T21:46:47.470Z,16.88
2022-09-07T21:51:50.999Z,14.40
2022-09-07T21:56:56.140Z,11.88
2022-09-07T22:01:59.730Z,14.43
2022-09-07T22:07:03.348Z,12.45
2022-09-07T22:12:08.917Z,12.32
2022-09-07T22:17:12.476Z,14.32
2022-09-07T22:22:16.047Z,13.77
2022-09-07T22:27:21.236Z,13.77
2022-09-07T22:32:24.852Z,11.13
2022-09-07T22:37:28.418Z,14.90
2022-09-07T22:42:33.674Z,11.93
2022-09-07T22:47:37.197Z,14.82
2022-09-07T22:52:40.768Z,15.55
2022-09-07T22:57:47.551Z,13.57
2022-09-07T23:02:51.106Z,12.90
2022-09-07T23:07:54.650Z,19.92
2022-09-07T23:12:59.811Z,14.13
2022-09-07T23:18:03.336Z,14.50
2022-09-07T23:23:07.829Z,15.43
2022-09-07T23:28:13.772Z,17.38
2022-09-07T23:33:17.383Z,14.07
2022-09-07T23:38:20.935Z,14.18
2022-09-07T23:43:27.526Z,16.52
2022-09-07T23:48:31.349Z,15.18
2022-09-07T23:53:35.077Z,14.38
2022-09-07T23:58:41.296Z,15.75
